Flight Track Log - Related Links

Times and Time Zones

All times are in EDT time to prevent confusion due to time zone crossing. See the ASQ4356 flight status page for this flight to view local times or setup timezone preferences in your user account.

Time Position Orientation Groundspeed Altitude Reporting Facility
EDT Latitude Longitude Course Direction KTS MPH feet Rate Location/Type
Sun 20:55:06 29.9547 -95.3372 207° Southwest 168 193 800  Level Houston Center
Sun 20:55:48 29.9303 -95.2992 127° Southeast 207 238 1,800 1,636 Climbing Houston Center
Sun 20:57:18 29.8692 -95.2319 136° Southeast 254 292 4,400 1,589 Climbing Houston Center
Sun 20:58:00 29.6173 -95.5392 209° Southwest  Level FlightAware Approximate
Sun 20:58:19 29.7856 -95.2383 184° South 251 289 5,800  Level Houston Center
Sun 20:59:00 29.5259 -95.5912 206° Southwest  Level FlightAware Approximate
Sun 20:59:21 29.7114 -95.2458 185° South 265 305 7,900  Level Houston Center
Sun 21:00:00 29.4343 -95.6423 207° Southwest  Level FlightAware Approximate
Sun 21:00:22 29.6372 -95.2544 186° South 271 312 9,800  Level Houston Center
Sun 21:01:24 29.5561 -95.2597 183° South 299 344 10,900 1,065 Climbing Houston Center
Sun 21:02:26 29.4656 -95.2669 184° South 323 372 12,000 1,171 Climbing Houston Center
Sun 21:03:27 29.3511 -95.2731 183° South 340 391 13,300 1,180 Climbing Houston Center
Sun 21:04:28 29.2544 -95.3072 197° South 365 420 14,400 1,073 Climbing Houston Center
Sun 21:05:30 29.1622 -95.3539 204° Southwest 364 419 15,500 1,073 Climbing Houston Center
Sun 21:06:31 29.0681 -95.3983 202° Southwest 365 420 16,600 1,073 Climbing Houston Center
Sun 21:07:33 28.9736 -95.4447 203° Southwest 368 423 17,700 1,268 Climbing Houston Center
Sun 21:08:34 28.8781 -95.4919 203° Southwest 373 429 19,200 1,512 Climbing Houston Center
Sun 21:09:36 28.7847 -95.5350 202° Southwest 364 419 20,800 1,854 Climbing Houston Center
Sun 21:10:37 28.6964 -95.5742 201° Southwest 347 399 23,000 1,869 Climbing Houston Center
Sun 21:11:38 28.6233 -95.6200 209° Southwest 309 356 24,600 1,317 Climbing Houston Center
Sun 21:12:40 28.5731 -95.7200 240° Southwest 306 352 25,700 1,073 Climbing Houston Center
Sun 21:13:41 28.5314 -95.8056 241° Southwest 308 354 26,800 976 Climbing Houston Center
Sun 21:14:43 28.4897 -95.8939 242° Southwest 315 362 27,700 585 Climbing Houston Center
Sun 21:15:44 28.4431 -95.9894 241° Southwest 334 384 28,000 590 Climbing Houston Center
Sun 21:16:45 28.3956 -96.0928 242° Southwest 366 421 28,900 976 Climbing Houston Center
Sun 21:17:47 28.3669 -96.1969 253° West 352 405 30,000 829 Climbing Houston Center
Sun 21:18:48 28.4103 -96.2939 297° West 352 405 30,600 934 Climbing Houston Center
Sun 21:19:49 28.4669 -96.3828 306° West 349 402 31,900 689 Climbing Houston Center
Sun 21:20:50 28.5233 -96.4717 306° West 346 398 32,000 49 Climbing Houston Center
Sun 21:21:52 28.5867 -96.5681 307° West 367 422 32,000  Level Houston Center
Sun 21:22:53 28.6525 -96.6725 306° West 395 455 32,000  Level Houston Center
Sun 21:23:54 28.7356 -96.8042 306° West 418 481 32,000 -49 Level Houston Center
Sun 21:24:55 28.8064 -96.9150 306° West 428 493 31,900  Descending Houston Center
Sun 21:25:57 28.8764 -97.0269 306° West 431 496 32,000 49 Climbing Houston Center
Sun 21:26:58 28.9467 -97.1383 306° West 430 495 32,000  Level Houston Center
Sun 21:27:59 29.0183 -97.2519 306° West 434 499 32,000  Level Houston Center
Sun 21:29:01 29.0894 -97.3661 305° West 436 502 32,000  Level Houston Center
Sun 21:30:02 29.1600 -97.4792 306° West 436 502 32,000  Level Houston Center
Sun 21:31:03 29.2319 -97.5917 306° West 435 501 32,000  Level Houston Center
Sun 21:32:04 29.3017 -97.7053 305° West 436 502 32,000  Level Houston Center
Sun 21:33:05 29.3817 -97.8333 306° West 434 499 32,000  Level Houston Center
Sun 21:34:07 29.4506 -97.9461 305° West 433 498 32,000  Level Houston Center
Sun 21:35:08 29.5203 -98.0575 306° West 430 495 32,000  Level Houston Center
Sun 21:36:09 29.5939 -98.1778 305° West 429 494 32,000  Level Houston Center
Sun 21:37:10 29.6628 -98.2894 305° West 430 495 32,000  Level Houston Center
Sun 21:38:11 29.7319 -98.4006 306° West 431 496 32,000  Level Houston Center
Sun 21:39:13 29.8036 -98.5197 305° West 424 488 32,000  Level Houston Center
Sun 21:40:14 29.8700 -98.6311 305° West 423 487 32,000  Level Houston Center
Sun 21:41:15 29.9369 -98.7419 305° West 423 487 32,000  Level Houston Center
Sun 21:42:16 30.0094 -98.8614 305° West 423 487 32,000  Level Houston Center
Sun 21:43:17 30.0761 -98.9725 305° West 422 486 32,000  Level Houston Center
Sun 21:44:19 30.1442 -99.0836 305° West 423 487 32,000  Level Houston Center
Sun 21:45:20 30.2033 -99.1839 304° West 425 489 32,000 -49 Level Houston Center
Sun 21:46:21 30.2706 -99.2972 304° West 428 493 31,900  Descending Houston Center
Sun 21:47:22 30.3533 -99.4317 306° West 431 496 32,000 49 Climbing Houston Center
Sun 21:48:23 30.4192 -99.5444 304° West 427 491 32,000  Level Houston Center
Sun 21:49:24 30.4853 -99.6572 304° West 426 490 32,000  Level Houston Center
Sun 21:50:25 30.5508 -99.7683 304° West 423 487 32,000  Level Houston Center
Sun 21:51:27 30.6181 -99.8814 305° West 430 495 32,000  Level Houston Center
Sun 21:52:28 30.6850 -99.9944 305° West 433 498 32,000 -787 Level Houston Center
Sun 21:53:29 30.7508 -100.1075 304° West 427 491 30,400 -2,016 Descending Houston Center
Sun 21:54:30 30.8161 -100.2172 305° West 419 482 27,900 -2,361 Descending Houston Center
Sun 21:55:31 30.8811 -100.3319 303° West 422 486 25,600 -2,508 Descending Houston Center
Sun 21:56:32 30.9600 -100.4675 304° West 429 494 22,800 -1,770 Descending Houston Center
Sun 21:57:33 31.0222 -100.5722 305° West 401 461 22,000 -393 Descending Houston Center
Sun 21:58:34 31.0842 -100.6842 303° West 412 474 22,000  Level Houston Center
Sun 21:59:35 31.1481 -100.7892 305° West 403 464 22,000  Level Houston Center
Sun 22:00:36 31.2097 -100.8983 303° West 402 463 22,000 -98 Level Houston Center
Sun 22:01:37 31.2722 -101.0089 304° West 411 473 21,800 -590 Descending Houston Center
Sun 22:02:38 31.3394 -101.1189 306° West 401 461 20,800 -984 Descending Houston Center
Sun 22:03:39 31.4011 -101.2283 303° West 404 465 19,800 -1,000 Descending Houston Center
Sun 22:04:14 31.4353 -101.2917 302° West 401 461 19,200 -1,011 Descending Fort Worth Center
Sun 22:05:14 31.4967 -101.3967 304° West 401 461 18,200 -1,000 Descending Fort Worth Center
Sun 22:06:14 31.5347 -101.5103 291° West 393 452 17,200 -1,150 Descending Fort Worth Center
Sun 22:07:14 31.5728 -101.6267 291° West 381 438 15,900 -1,400 Descending Fort Worth Center
Sun 22:08:14 31.6106 -101.7406 291° West 381 438 14,400 -1,650 Descending Fort Worth Center
Sun 22:09:14 31.6467 -101.8472 292° West 368 423 12,600 -1,750 Descending Fort Worth Center
Sun 22:10:14 31.6828 -101.9442 294° West 349 402 10,900 -1,450 Descending Fort Worth Center
Sun 22:11:14 31.7172 -102.0336 294° West 322 371 9,700 -1,400 Descending Fort Worth Center
Sun 22:12:14 31.7453 -102.1156 292° West 294 338 8,100 -1,600 Descending Fort Worth Center
Sun 22:13:14 31.7778 -102.1981 295° West 284 327 6,500 -1,550 Descending Fort Worth Center
Sun 22:14:14 31.8081 -102.2778 294° West 278 320 5,000 -800 Descending Fort Worth Center
Sun 22:15:14 31.8589 -102.3147 328° Northwest 233 268 4,900 -100 Descending Fort Worth Center

Login

Don't have an account? Register now (free) for customized features, flight alerts, and more!